createdAt,value
2017-10-25T00:01:18.936Z,5.17
2017-10-25T00:03:45.545Z,4.40
2017-10-25T00:06:12.196Z,5.27
2017-10-25T00:08:38.809Z,3.83
2017-10-25T00:11:05.401Z,4.93
2017-10-25T00:13:32.019Z,3.90
2017-10-25T00:15:58.608Z,4.40
2017-10-25T00:18:25.220Z,4.13
2017-10-25T00:20:51.825Z,3.83
2017-10-25T00:23:18.424Z,3.90
2017-10-25T00:25:45.029Z,4.33
2017-10-25T00:28:11.633Z,3.13
2017-10-25T00:30:38.229Z,4.20
2017-10-25T00:33:04.855Z,4.13
2017-10-25T00:35:31.458Z,3.47
2017-10-25T00:37:58.092Z,3.40
2017-10-25T00:40:24.687Z,4.00
2017-10-25T00:42:51.297Z,3.90
2017-10-25T00:45:17.891Z,3.97
2017-10-25T00:47:44.515Z,4.00
2017-10-25T00:50:11.141Z,3.90
2017-10-25T00:52:37.807Z,3.33
2017-10-25T00:55:04.380Z,3.43
2017-10-25T00:57:31.017Z,3.30
2017-10-25T00:59:57.620Z,4.37
2017-10-25T01:02:24.229Z,3.80
2017-10-25T01:04:50.832Z,3.30
2017-10-25T01:07:17.420Z,3.57
2017-10-25T01:09:44.040Z,3.60
2017-10-25T01:12:10.640Z,3.87
2017-10-25T01:14:37.342Z,4.37
2017-10-25T01:17:03.993Z,3.57
2017-10-25T01:19:30.585Z,3.60
2017-10-25T01:21:57.184Z,3.80
2017-10-25T01:24:23.801Z,3.67
2017-10-25T01:26:50.396Z,4.03
2017-10-25T01:29:17.029Z,4.43
2017-10-25T01:31:43.624Z,3.20
2017-10-25T01:34:10.233Z,3.47
2017-10-25T01:36:36.877Z,3.90
2017-10-25T01:39:03.532Z,3.90
2017-10-25T01:41:30.132Z,4.10
2017-10-25T01:43:56.792Z,3.70
2017-10-25T01:46:23.401Z,3.90
2017-10-25T01:48:50.001Z,3.77
2017-10-25T01:51:16.619Z,3.63
2017-10-25T01:53:43.245Z,4.10
2017-10-25T01:56:09.866Z,3.73
2017-10-25T01:58:36.496Z,3.50
2017-10-25T02:01:03.099Z,3.30
2017-10-25T02:03:29.724Z,3.60
2017-10-25T02:05:56.349Z,3.20
2017-10-25T02:08:22.941Z,3.60
2017-10-25T02:10:49.573Z,3.57
2017-10-25T02:13:16.197Z,3.40
2017-10-25T02:15:42.804Z,3.60
2017-10-25T02:18:09.431Z,3.87
2017-10-25T02:20:36.034Z,3.63
2017-10-25T02:23:02.649Z,3.80
2017-10-25T02:25:29.241Z,3.77
2017-10-25T02:27:55.851Z,3.73
2017-10-25T02:30:22.481Z,3.97
2017-10-25T02:32:49.091Z,3.90
2017-10-25T02:35:15.694Z,3.40
2017-10-25T02:37:42.321Z,3.33
2017-10-25T02:40:08.942Z,3.77
2017-10-25T02:42:35.529Z,3.70
2017-10-25T02:45:02.230Z,3.80
2017-10-25T02:47:28.871Z,3.80
2017-10-25T02:49:55.460Z,4.00
2017-10-25T02:52:22.066Z,3.77
2017-10-25T02:54:48.677Z,3.60
2017-10-25T02:57:15.302Z,3.30
2017-10-25T02:59:41.888Z,4.17
2017-10-25T03:02:08.502Z,3.27
2017-10-25T03:04:35.112Z,3.70
2017-10-25T03:07:01.733Z,3.93
2017-10-25T03:09:28.344Z,3.17
2017-10-25T03:11:55.043Z,3.90
2017-10-25T03:14:21.667Z,2.87
2017-10-25T03:16:48.282Z,3.50
2017-10-25T03:19:14.888Z,3.50
2017-10-25T03:21:41.551Z,3.33
2017-10-25T03:24:08.178Z,3.63
2017-10-25T03:26:34.806Z,3.37
2017-10-25T03:29:01.394Z,3.37
2017-10-25T03:31:28.017Z,3.20
2017-10-25T03:33:54.615Z,12.17
2017-10-25T03:36:21.317Z,4.80
2017-10-25T03:38:47.927Z,3.50
2017-10-25T03:41:14.557Z,3.50
2017-10-25T03:43:41.161Z,3.20
2017-10-25T03:46:07.756Z,3.50
2017-10-25T03:48:34.399Z,3.40
2017-10-25T03:51:01.024Z,3.77
2017-10-25T03:53:27.633Z,3.33
2017-10-25T03:55:54.230Z,3.23
2017-10-25T03:58:20.842Z,3.30
2017-10-25T04:00:47.442Z,3.60
2017-10-25T04:03:14.044Z,4.03
2017-10-25T04:05:40.769Z,3.60
2017-10-25T04:08:07.352Z,3.50
2017-10-25T04:10:33.955Z,3.20
2017-10-25T04:13:00.569Z,3.27
2017-10-25T04:15:27.181Z,3.33
2017-10-25T04:17:53.802Z,3.50
2017-10-25T04:20:20.404Z,3.50
2017-10-25T04:22:47.033Z,3.67
2017-10-25T04:25:13.629Z,4.10
2017-10-25T04:27:40.239Z,3.70
2017-10-25T04:30:06.950Z,3.03
2017-10-25T04:32:33.581Z,3.47
2017-10-25T04:35:00.180Z,3.87
2017-10-25T04:37:26.764Z,3.33
2017-10-25T04:39:53.493Z,3.23
2017-10-25T04:42:20.092Z,2.80
2017-10-25T04:44:46.692Z,3.27
2017-10-25T04:47:13.330Z,3.33
2017-10-25T04:49:39.966Z,3.33
2017-10-25T04:52:06.597Z,3.20
2017-10-25T04:54:33.219Z,3.13
2017-10-25T04:56:59.844Z,3.20
2017-10-25T04:59:26.467Z,3.40
2017-10-25T05:01:53.102Z,3.77
2017-10-25T05:04:19.721Z,3.03
2017-10-25T05:06:46.317Z,3.10
2017-10-25T05:09:12.949Z,3.47
2017-10-25T05:11:39.560Z,2.90
2017-10-25T05:14:06.165Z,2.93
2017-10-25T05:16:32.776Z,3.33
2017-10-25T05:18:59.408Z,3.00
2017-10-25T05:21:26.008Z,2.67
2017-10-25T05:23:52.609Z,3.20
2017-10-25T05:26:19.212Z,3.13
2017-10-25T05:28:45.821Z,2.90
2017-10-25T05:31:12.437Z,2.97
2017-10-25T05:33:39.025Z,3.30
2017-10-25T05:36:05.649Z,2.80
2017-10-25T05:38:32.402Z,2.83
2017-10-25T05:40:58.990Z,2.67
2017-10-25T05:43:25.592Z,2.87
2017-10-25T05:45:52.219Z,3.53
2017-10-25T05:48:18.860Z,3.50
2017-10-25T05:50:45.466Z,2.90
2017-10-25T05:53:12.063Z,3.33
2017-10-25T05:55:38.690Z,3.10
2017-10-25T05:58:05.309Z,3.73
2017-10-25T06:00:31.929Z,3.20
2017-10-25T06:02:58.534Z,3.00
2017-10-25T06:05:25.133Z,3.30
2017-10-25T06:07:51.844Z,3.80
2017-10-25T06:10:18.445Z,3.90
2017-10-25T06:12:45.039Z,3.43
2017-10-25T06:15:11.683Z,3.50
2017-10-25T06:17:38.309Z,3.63
2017-10-25T06:20:04.930Z,3.17
2017-10-25T06:22:31.569Z,3.73
2017-10-25T06:24:58.185Z,2.83
2017-10-25T06:27:24.819Z,3.43
2017-10-25T06:29:51.437Z,3.50
2017-10-25T06:32:18.080Z,3.47
2017-10-25T06:34:44.676Z,3.37
2017-10-25T06:37:11.277Z,3.23
2017-10-25T06:39:37.895Z,3.80
2017-10-25T06:42:04.572Z,3.80
2017-10-25T06:44:31.181Z,3.47
2017-10-25T06:46:57.812Z,4.20
2017-10-25T06:49:24.462Z,4.20
2017-10-25T06:51:51.061Z,3.50
2017-10-25T06:54:17.672Z,4.40
2017-10-25T06:56:44.296Z,4.30
2017-10-25T06:59:10.936Z,3.80
2017-10-25T07:01:37.532Z,4.30
2017-10-25T07:04:04.145Z,3.53
2017-10-25T07:06:30.760Z,4.13
2017-10-25T07:08:57.356Z,3.20
2017-10-25T07:11:23.957Z,4.03
2017-10-25T07:13:50.574Z,3.83
2017-10-25T07:16:17.206Z,4.20
2017-10-25T07:18:43.832Z,4.03
2017-10-25T07:21:10.424Z,3.20
2017-10-25T07:23:37.037Z,3.73
2017-10-25T07:26:03.650Z,4.17
2017-10-25T07:28:30.246Z,4.00
2017-10-25T07:30:56.841Z,4.00
2017-10-25T07:33:23.556Z,3.70
2017-10-25T07:35:50.160Z,4.30
2017-10-25T07:38:16.781Z,3.87
2017-10-25T07:40:43.418Z,4.20
2017-10-25T07:43:10.121Z,4.20
2017-10-25T07:45:36.747Z,4.10
2017-10-25T07:48:03.357Z,3.90
2017-10-25T07:50:29.949Z,4.93
2017-10-25T07:52:56.541Z,4.17
2017-10-25T07:55:23.195Z,4.13
2017-10-25T07:57:49.789Z,3.67
2017-10-25T08:00:16.397Z,3.63
2017-10-25T08:02:43.042Z,4.00
2017-10-25T08:05:09.749Z,3.67
2017-10-25T08:07:36.333Z,3.63
2017-10-25T08:10:02.951Z,4.60
2017-10-25T08:12:29.551Z,4.00
2017-10-25T08:14:56.157Z,3.63
2017-10-25T08:17:22.776Z,3.10
2017-10-25T08:19:49.373Z,4.53
2017-10-25T08:22:16.006Z,3.87
2017-10-25T08:24:42.597Z,3.80
2017-10-25T08:27:09.216Z,4.20
2017-10-25T08:29:35.828Z,4.23
2017-10-25T08:32:02.423Z,3.80
2017-10-25T08:34:29.103Z,3.10
2017-10-25T08:36:55.697Z,3.40
2017-10-25T08:39:22.305Z,2.70
2017-10-25T08:41:49.006Z,3.30
2017-10-25T08:44:15.610Z,3.67
2017-10-25T08:46:42.201Z,3.80
2017-10-25T08:49:08.824Z,2.87
2017-10-25T08:51:35.466Z,2.90
2017-10-25T08:54:02.095Z,3.77
2017-10-25T08:56:28.732Z,3.20
2017-10-25T08:58:55.346Z,2.83
2017-10-25T09:01:21.944Z,3.37
2017-10-25T09:03:48.559Z,3.27
2017-10-25T09:06:15.180Z,3.00
2017-10-25T09:08:41.784Z,3.10
2017-10-25T09:11:08.388Z,3.80
2017-10-25T09:13:35.016Z,3.00
2017-10-25T09:16:01.631Z,3.03
2017-10-25T09:18:28.266Z,2.90
2017-10-25T09:20:54.905Z,3.30
2017-10-25T09:23:21.484Z,3.23
2017-10-25T09:25:48.084Z,3.00
2017-10-25T09:28:14.704Z,2.70
2017-10-25T09:30:41.297Z,3.33
2017-10-25T09:33:07.992Z,2.57
2017-10-25T09:35:34.568Z,3.23
2017-10-25T09:38:01.181Z,3.03
2017-10-25T09:40:27.782Z,3.40
2017-10-25T09:42:54.441Z,3.90
2017-10-25T09:45:21.036Z,4.00
2017-10-25T09:47:47.657Z,3.23
2017-10-25T09:50:14.252Z,3.27
2017-10-25T09:52:40.878Z,3.57
2017-10-25T09:55:07.502Z,3.40
2017-10-25T09:57:34.166Z,3.50
2017-10-25T10:00:00.751Z,3.40
2017-10-25T10:02:27.353Z,3.30
2017-10-25T10:04:53.973Z,3.23
2017-10-25T10:07:20.592Z,3.63
2017-10-25T10:09:47.204Z,3.53
2017-10-25T10:12:13.892Z,3.60
2017-10-25T10:14:40.469Z,3.83
2017-10-25T10:17:07.100Z,2.90
2017-10-25T10:19:33.713Z,3.70
2017-10-25T10:22:00.311Z,3.60
2017-10-25T10:24:26.929Z,3.20
2017-10-25T10:26:53.536Z,3.43
2017-10-25T10:29:20.159Z,2.93
2017-10-25T10:31:46.789Z,2.90
2017-10-25T10:34:13.371Z,2.63
2017-10-25T10:36:39.977Z,2.97
2017-10-25T10:39:06.592Z,3.27
2017-10-25T10:41:33.240Z,3.37
2017-10-25T10:43:59.831Z,3.50
2017-10-25T10:46:26.444Z,3.00
2017-10-25T10:48:53.066Z,3.70
2017-10-25T10:51:19.688Z,3.13
2017-10-25T10:53:46.285Z,3.17
2017-10-25T10:56:12.918Z,3.60
2017-10-25T10:58:39.517Z,3.87
2017-10-25T11:01:06.137Z,4.23
2017-10-25T11:03:32.769Z,3.80
2017-10-25T11:05:59.413Z,3.83
2017-10-25T11:08:26.153Z,4.77
2017-10-25T11:10:52.748Z,4.03
2017-10-25T11:13:19.430Z,3.97
2017-10-25T11:15:46.067Z,3.33
2017-10-25T11:18:12.656Z,3.10
2017-10-25T11:20:39.264Z,2.73
2017-10-25T11:23:05.925Z,3.00
2017-10-25T11:25:32.516Z,3.30
2017-10-25T11:27:59.132Z,2.70
2017-10-25T11:30:25.741Z,3.07
2017-10-25T11:32:52.340Z,2.40
2017-10-25T11:35:18.933Z,3.03
2017-10-25T11:37:51.344Z,2.23
2017-10-25T11:40:17.940Z,3.03
2017-10-25T11:42:44.549Z,2.80
2017-10-25T11:45:11.156Z,2.60
2017-10-25T11:47:37.777Z,2.80
2017-10-25T11:50:04.385Z,2.67
2017-10-25T11:52:30.999Z,2.67
2017-10-25T11:54:57.625Z,2.37
2017-10-25T11:57:24.220Z,2.63
2017-10-25T11:59:50.857Z,2.03
2017-10-25T12:02:17.480Z,2.80
2017-10-25T12:04:44.098Z,2.60
2017-10-25T12:07:10.712Z,2.43
2017-10-25T12:09:37.426Z,2.17
2017-10-25T12:12:04.024Z,2.67
2017-10-25T12:14:30.642Z,2.50
2017-10-25T12:16:57.237Z,2.60
2017-10-25T12:19:23.976Z,2.40
2017-10-25T12:21:50.575Z,2.50
2017-10-25T12:24:17.197Z,2.67
2017-10-25T12:26:43.785Z,2.53
2017-10-25T12:29:12.222Z,2.97
2017-10-25T12:31:38.838Z,2.93
2017-10-25T12:34:05.441Z,2.87
2017-10-25T12:36:32.116Z,3.10
2017-10-25T12:38:58.720Z,2.60
2017-10-25T12:41:25.398Z,2.60
2017-10-25T12:43:52.007Z,2.40
2017-10-25T12:46:18.620Z,2.30
2017-10-25T12:48:45.252Z,1.77
2017-10-25T12:51:11.840Z,2.40
2017-10-25T12:53:38.432Z,2.60
2017-10-25T12:56:05.069Z,2.67
2017-10-25T12:58:31.694Z,2.60
2017-10-25T13:00:58.284Z,2.27
2017-10-25T13:03:24.914Z,2.13
2017-10-25T13:05:51.561Z,2.50
2017-10-25T13:08:18.151Z,3.20
2017-10-25T13:10:45.813Z,2.70
2017-10-25T13:13:14.421Z,2.90
2017-10-25T13:15:42.600Z,3.00
2017-10-25T13:18:12.424Z,2.87
2017-10-25T13:20:39.063Z,2.43
2017-10-25T13:23:06.171Z,2.67
2017-10-25T13:25:32.768Z,2.80
2017-10-25T13:27:59.389Z,2.93
2017-10-25T13:30:26.008Z,3.00
2017-10-25T13:32:52.625Z,2.70
2017-10-25T13:35:19.250Z,3.40
2017-10-25T13:37:45.853Z,2.70
2017-10-25T13:40:12.453Z,2.97
2017-10-25T13:42:39.090Z,2.93
2017-10-25T13:45:05.680Z,2.77
2017-10-25T13:47:32.283Z,3.07
2017-10-25T13:49:58.889Z,2.70
2017-10-25T13:52:25.616Z,2.83
2017-10-25T13:54:52.225Z,3.47
2017-10-25T13:57:18.829Z,3.03
2017-10-25T13:59:45.529Z,2.90
2017-10-25T14:02:12.132Z,3.37
2017-10-25T14:04:38.755Z,3.27
2017-10-25T14:07:05.445Z,3.00
2017-10-25T14:09:32.028Z,2.87
2017-10-25T14:11:58.640Z,3.50
2017-10-25T14:14:25.237Z,3.20
2017-10-25T14:16:51.894Z,2.97
2017-10-25T14:19:18.482Z,4.40
2017-10-25T14:21:45.073Z,4.10
2017-10-25T14:24:11.677Z,3.30
2017-10-25T14:26:44.097Z,3.43
2017-10-25T14:29:10.718Z,3.30
2017-10-25T14:31:37.351Z,3.90
2017-10-25T14:34:03.993Z,3.03
2017-10-25T14:36:30.588Z,3.33
2017-10-25T14:38:57.192Z,2.70
2017-10-25T14:41:23.812Z,3.60
2017-10-25T14:43:50.459Z,3.87
2017-10-25T14:46:17.076Z,3.63
2017-10-25T14:48:43.697Z,4.53
2017-10-25T14:51:10.308Z,4.33
2017-10-25T14:53:36.925Z,4.67
2017-10-25T14:56:03.729Z,4.10
2017-10-25T14:58:30.307Z,4.60
2017-10-25T15:00:57.006Z,4.90
2017-10-25T15:03:23.646Z,4.17
2017-10-25T15:05:50.259Z,4.43
2017-10-25T15:08:16.874Z,3.93
2017-10-25T15:10:43.495Z,4.23
2017-10-25T15:13:10.081Z,3.70
2017-10-25T15:15:36.701Z,3.67
2017-10-25T15:18:03.321Z,4.10
2017-10-25T15:20:29.949Z,3.60
2017-10-25T15:22:56.645Z,3.97
2017-10-25T15:25:23.232Z,4.00
2017-10-25T15:27:49.858Z,3.83
2017-10-25T15:30:16.473Z,3.80
2017-10-25T15:32:43.112Z,3.50
2017-10-25T15:35:09.705Z,3.00
2017-10-25T15:37:36.302Z,3.30
2017-10-25T15:40:02.924Z,3.47
2017-10-25T15:42:29.535Z,3.43
2017-10-25T15:44:56.150Z,3.07
2017-10-25T15:47:22.744Z,2.93
2017-10-25T15:49:49.365Z,3.17
2017-10-25T15:52:16.199Z,3.33
2017-10-25T15:54:42.827Z,3.80
2017-10-25T15:57:09.432Z,3.20
2017-10-25T15:59:36.031Z,3.00
2017-10-25T16:02:02.632Z,3.20
2017-10-25T16:04:29.240Z,3.13
2017-10-25T16:06:55.891Z,2.83
2017-10-25T16:09:22.477Z,3.20
2017-10-25T16:11:49.105Z,3.17
2017-10-25T16:14:15.703Z,2.77
2017-10-25T16:16:42.292Z,2.60
2017-10-25T16:19:08.918Z,2.30
2017-10-25T16:21:35.543Z,2.57
2017-10-25T16:24:02.134Z,3.20
2017-10-25T16:26:28.744Z,2.43
2017-10-25T16:28:55.364Z,2.67
2017-10-25T16:31:21.958Z,2.63
2017-10-25T16:33:48.581Z,3.27
2017-10-25T16:36:15.196Z,3.27
2017-10-25T16:38:41.908Z,3.30
2017-10-25T16:41:08.544Z,2.87
2017-10-25T16:43:35.144Z,2.53
2017-10-25T16:46:01.787Z,3.43
2017-10-25T16:48:28.384Z,2.87
2017-10-25T16:50:54.998Z,3.03
2017-10-25T16:53:21.626Z,3.10
2017-10-25T16:55:48.261Z,3.53
2017-10-25T16:58:14.861Z,3.53
2017-10-25T17:00:41.545Z,3.37
2017-10-25T17:03:08.144Z,3.17
2017-10-25T17:05:34.751Z,3.30
2017-10-25T17:08:01.345Z,4.20
2017-10-25T17:10:27.956Z,4.03
2017-10-25T17:12:54.639Z,4.03
2017-10-25T17:15:21.241Z,4.10
2017-10-25T17:17:47.856Z,4.07
2017-10-25T17:20:14.472Z,4.20
2017-10-25T17:22:41.095Z,4.03
2017-10-25T17:25:07.679Z,5.10
2017-10-25T17:27:34.300Z,4.93
2017-10-25T17:30:00.922Z,4.60
2017-10-25T17:32:27.586Z,4.03
2017-10-25T17:34:54.274Z,4.30
2017-10-25T17:37:20.893Z,4.90
2017-10-25T17:39:47.552Z,3.70
2017-10-25T17:42:14.171Z,4.23
2017-10-25T17:44:40.775Z,4.10
2017-10-25T17:47:07.649Z,4.40
2017-10-25T17:49:35.213Z,4.83
2017-10-25T17:52:01.820Z,5.30
2017-10-25T17:54:28.449Z,6.10
2017-10-25T17:56:55.598Z,6.60
2017-10-25T17:59:22.240Z,5.70
2017-10-25T18:01:48.841Z,5.83
2017-10-25T18:04:15.489Z,5.87
2017-10-25T18:06:42.203Z,5.80
2017-10-25T18:09:08.805Z,5.60
2017-10-25T18:11:35.464Z,5.57
2017-10-25T18:14:02.121Z,5.67
2017-10-25T18:16:28.781Z,6.20
2017-10-25T18:18:55.400Z,6.80
2017-10-25T18:21:21.990Z,6.47
2017-10-25T18:23:48.611Z,6.70
2017-10-25T18:26:15.245Z,6.40
2017-10-25T18:28:41.933Z,6.17
2017-10-25T18:31:08.659Z,6.00
2017-10-25T18:33:35.283Z,6.90
2017-10-25T18:36:01.872Z,6.50
2017-10-25T18:38:28.468Z,6.47
2017-10-25T18:40:55.146Z,6.07
2017-10-25T18:43:21.738Z,6.33
2017-10-25T18:45:48.337Z,6.37
2017-10-25T18:48:14.991Z,6.83
2017-10-25T18:50:41.597Z,6.40
2017-10-25T18:53:08.189Z,6.07
2017-10-25T18:55:34.801Z,7.00
2017-10-25T18:58:01.409Z,6.03
2017-10-25T19:00:28.032Z,6.53
2017-10-25T19:02:54.772Z,6.20
2017-10-25T19:05:21.382Z,5.57
2017-10-25T19:07:48.104Z,6.40
2017-10-25T19:10:14.787Z,5.80
2017-10-25T19:12:41.488Z,5.57
2017-10-25T19:15:08.084Z,5.60
2017-10-25T19:17:34.806Z,6.07
2017-10-25T19:20:01.393Z,5.93
2017-10-25T19:22:28.006Z,5.93
2017-10-25T19:24:54.601Z,5.23
2017-10-25T19:27:21.253Z,5.63
2017-10-25T19:29:47.923Z,5.40
2017-10-25T19:32:14.512Z,6.20
2017-10-25T19:34:41.184Z,6.07
2017-10-25T19:37:07.844Z,5.10
2017-10-25T19:39:34.452Z,5.50
2017-10-25T19:42:01.285Z,5.73
2017-10-25T19:44:27.921Z,5.60
2017-10-25T19:46:55.361Z,6.20
2017-10-25T19:49:22.068Z,5.43
2017-10-25T19:51:48.669Z,5.77
2017-10-25T19:54:15.294Z,5.70
2017-10-25T19:56:41.905Z,5.97
2017-10-25T19:59:08.605Z,6.20
2017-10-25T20:01:35.316Z,5.80
2017-10-25T20:04:01.903Z,7.10
2017-10-25T20:06:28.584Z,6.73
2017-10-25T20:08:55.448Z,6.20
2017-10-25T20:11:22.064Z,6.07
2017-10-25T20:13:48.718Z,6.00
2017-10-25T20:16:15.324Z,6.80
2017-10-25T20:18:41.949Z,6.40
2017-10-25T20:21:08.653Z,6.40
2017-10-25T20:23:35.402Z,6.80
2017-10-25T20:26:02.009Z,5.90
2017-10-25T20:28:28.621Z,5.60
2017-10-25T20:30:55.243Z,6.20
2017-10-25T20:33:21.838Z,6.20
2017-10-25T20:35:48.445Z,5.83
2017-10-25T20:38:15.049Z,5.73
2017-10-25T20:40:41.668Z,6.10
2017-10-25T20:43:08.294Z,5.33
2017-10-25T20:45:34.883Z,5.70
2017-10-25T20:48:01.482Z,5.77
2017-10-25T20:50:28.118Z,6.00
2017-10-25T20:52:54.741Z,6.03
2017-10-25T20:55:21.345Z,5.90
2017-10-25T20:57:47.965Z,6.10
2017-10-25T21:00:14.638Z,6.50
2017-10-25T21:02:41.292Z,5.60
2017-10-25T21:05:07.900Z,5.67
2017-10-25T21:07:34.504Z,6.30
2017-10-25T21:10:01.123Z,5.70
2017-10-25T21:12:27.727Z,6.10
2017-10-25T21:14:54.344Z,6.03
2017-10-25T21:17:20.970Z,5.20
2017-10-25T21:19:47.583Z,5.80
2017-10-25T21:22:14.185Z,5.90
2017-10-25T21:24:43.285Z,5.90
2017-10-25T21:27:09.902Z,5.67
2017-10-25T21:29:36.494Z,5.70
2017-10-25T21:32:03.098Z,5.27
2017-10-25T21:34:29.735Z,5.53
2017-10-25T21:36:56.352Z,5.53
2017-10-25T21:39:22.945Z,5.00
2017-10-25T21:41:49.567Z,5.90
2017-10-25T21:44:16.176Z,5.17
2017-10-25T21:46:42.781Z,5.17
2017-10-25T21:49:09.385Z,5.87
2017-10-25T21:51:35.996Z,5.47
2017-10-25T21:54:02.648Z,6.30
2017-10-25T21:56:29.261Z,6.23
2017-10-25T21:58:55.884Z,6.20
2017-10-25T22:01:22.536Z,6.20
2017-10-25T22:03:49.133Z,6.20
2017-10-25T22:06:15.732Z,5.50
2017-10-25T22:08:42.461Z,6.03
2017-10-25T22:11:09.065Z,6.90
2017-10-25T22:13:35.670Z,6.97
2017-10-25T22:16:02.308Z,6.50
2017-10-25T22:18:28.901Z,6.93
2017-10-25T22:20:55.509Z,7.00
2017-10-25T22:23:22.125Z,6.67
2017-10-25T22:25:48.825Z,7.17
2017-10-25T22:28:15.462Z,7.70
2017-10-25T22:30:42.073Z,7.40
2017-10-25T22:33:08.673Z,7.70
2017-10-25T22:35:35.376Z,7.00
2017-10-25T22:38:01.973Z,6.70
2017-10-25T22:40:28.569Z,7.33
2017-10-25T22:42:55.197Z,7.27
2017-10-25T22:45:21.824Z,7.40
2017-10-25T22:47:48.461Z,7.70
2017-10-25T22:50:15.080Z,6.87
2017-10-25T22:52:41.682Z,8.00
2017-10-25T22:55:08.288Z,7.37
2017-10-25T22:57:34.893Z,6.60
2017-10-25T23:00:01.497Z,7.30
2017-10-25T23:02:28.116Z,6.47
2017-10-25T23:04:54.713Z,7.17
2017-10-25T23:07:21.361Z,6.57
2017-10-25T23:09:47.969Z,7.30
2017-10-25T23:12:14.565Z,7.10
2017-10-25T23:14:41.173Z,7.30
2017-10-25T23:17:07.789Z,6.70
2017-10-25T23:19:34.381Z,7.60
2017-10-25T23:22:00.993Z,7.10
2017-10-25T23:24:27.609Z,7.70
2017-10-25T23:26:54.259Z,7.60
2017-10-25T23:29:20.841Z,7.10
2017-10-25T23:31:47.542Z,6.70
2017-10-25T23:34:14.134Z,7.10
2017-10-25T23:36:40.761Z,7.53
2017-10-25T23:39:07.451Z,7.70
2017-10-25T23:41:34.053Z,7.40
2017-10-25T23:44:00.641Z,7.50
2017-10-25T23:46:27.238Z,7.87
2017-10-25T23:48:53.861Z,7.40
2017-10-25T23:51:20.462Z,7.20
2017-10-25T23:53:47.052Z,7.20
2017-10-25T23:56:13.722Z,7.47
2017-10-25T23:58:40.310Z,7.17
